createdAt,value
2018-03-26T16:20:42.889Z,60.17
2018-03-26T16:23:08.874Z,59.25
2018-03-26T16:25:34.804Z,59.77
2018-03-26T16:28:00.810Z,59.67
2018-03-26T16:30:26.762Z,60.10
2018-03-26T16:32:52.714Z,59.68
2018-03-26T16:35:18.690Z,60.59
2018-03-26T16:37:44.711Z,59.70
2018-03-26T16:40:10.699Z,59.68
2018-03-26T16:42:36.647Z,60.09
2018-03-26T16:45:02.716Z,59.14
2018-03-26T16:47:28.657Z,60.14
2018-03-26T16:49:54.602Z,60.38
2018-03-26T16:52:20.552Z,60.09
2018-03-26T16:54:46.586Z,60.27
2018-03-26T16:57:12.552Z,60.57
2018-03-26T16:59:38.495Z,60.46
2018-03-26T17:02:04.464Z,60.46
2018-03-26T17:04:30.438Z,60.04
2018-03-26T17:06:56.405Z,60.87
2018-03-26T17:09:22.352Z,60.49
2018-03-26T17:11:48.348Z,60.45
2018-03-26T17:14:14.445Z,61.37
2018-03-26T17:16:40.588Z,61.44
2018-03-26T17:19:07.402Z,61.47
2018-03-26T17:21:33.554Z,61.49
2018-03-26T17:23:59.575Z,61.53
2018-03-26T17:26:25.581Z,61.32
2018-03-26T17:28:51.647Z,59.76
2018-03-26T17:31:17.593Z,61.00
2018-03-26T17:33:43.581Z,60.87
2018-03-26T17:36:09.507Z,60.66
2018-03-26T17:38:35.467Z,60.47
2018-03-26T17:41:01.403Z,61.39
2018-03-26T17:43:27.354Z,60.85
2018-03-26T17:45:53.302Z,61.10
2018-03-26T17:48:19.231Z,61.31
2018-03-26T17:50:45.204Z,61.63
2018-03-26T17:53:11.139Z,61.96
2018-03-26T17:55:37.112Z,61.81
2018-03-26T17:58:03.049Z,61.87
2018-03-26T18:00:28.973Z,62.41
2018-03-26T18:02:54.918Z,62.46
2018-03-26T18:05:20.989Z,62.59
2018-03-26T18:07:46.923Z,62.32
2018-03-26T18:10:12.853Z,61.84
2018-03-26T18:12:38.836Z,61.37
2018-03-26T18:15:04.767Z,61.56
2018-03-26T18:17:30.801Z,61.63
2018-03-26T18:19:56.749Z,61.48
2018-03-26T18:22:22.715Z,61.41
2018-03-26T18:24:48.675Z,61.15
2018-03-26T18:27:14.763Z,61.20
2018-03-26T18:29:40.795Z,60.99
2018-03-26T18:32:06.826Z,61.19
2018-03-26T18:34:33.772Z,60.85
2018-03-26T18:36:59.704Z,60.79
2018-03-26T18:39:25.729Z,60.56
2018-03-26T18:41:51.735Z,60.61
2018-03-26T18:44:17.688Z,60.28
2018-03-26T18:46:43.615Z,61.30
2018-03-26T18:49:09.551Z,61.47
2018-03-26T18:51:35.511Z,61.93
2018-03-26T18:54:01.450Z,62.51
2018-03-26T18:56:27.375Z,61.59
2018-03-26T18:58:53.384Z,62.85
2018-03-26T19:01:19.349Z,61.26
2018-03-26T19:03:45.302Z,61.37
2018-03-26T19:06:11.231Z,61.70
2018-03-26T19:08:37.188Z,61.22
2018-03-26T19:11:03.162Z,60.83
2018-03-26T19:13:29.202Z,60.80
2018-03-26T19:15:55.140Z,60.97
2018-03-26T19:18:21.113Z,60.06
2018-03-26T19:20:47.058Z,60.20
2018-03-26T19:23:13.029Z,60.56
2018-03-26T19:25:38.952Z,60.22
2018-03-26T19:28:04.913Z,60.47
2018-03-26T19:30:30.858Z,60.55
2018-03-26T19:32:56.924Z,61.09
2018-03-26T19:35:22.854Z,60.99
2018-03-26T19:37:48.814Z,60.16
2018-03-26T19:40:14.831Z,60.92
2018-03-26T19:42:40.807Z,60.74
2018-03-26T19:45:06.758Z,60.02
2018-03-26T19:47:32.712Z,59.89
2018-03-26T19:49:58.660Z,60.40
2018-03-26T19:52:24.580Z,59.55
2018-03-26T19:54:50.612Z,60.28
2018-03-26T19:57:16.584Z,60.48
2018-03-26T19:59:42.708Z,60.89
2018-03-26T20:02:08.648Z,60.79
2018-03-26T20:04:34.578Z,61.06
2018-03-26T20:07:00.738Z,61.27
2018-03-26T20:09:26.673Z,61.08
2018-03-26T20:11:52.702Z,60.67
2018-03-26T20:14:18.696Z,60.55
2018-03-26T20:16:44.720Z,61.30
2018-03-26T20:19:10.668Z,61.45
2018-03-26T20:21:36.604Z,61.09
2018-03-26T20:24:02.552Z,61.24
2018-03-26T20:26:28.794Z,60.70
2018-03-26T20:28:54.710Z,60.66
2018-03-26T20:31:20.660Z,60.88
2018-03-26T20:33:46.597Z,60.67
2018-03-26T20:36:12.914Z,61.08
2018-03-26T20:38:38.854Z,61.04
2018-03-26T20:41:04.779Z,60.52
2018-03-26T20:43:30.747Z,60.96
2018-03-26T20:45:56.699Z,61.37
2018-03-26T20:48:22.666Z,61.32
2018-03-26T20:50:48.586Z,62.00
2018-03-26T20:53:14.535Z,60.90
2018-03-26T20:55:40.457Z,59.69
2018-03-26T20:58:06.383Z,61.91
2018-03-26T21:00:32.374Z,60.81
2018-03-26T21:02:58.341Z,62.08
2018-03-26T21:05:24.368Z,62.13
2018-03-26T21:07:50.411Z,60.85
2018-03-26T21:10:16.576Z,61.43
2018-03-26T21:12:42.533Z,61.66
2018-03-26T21:15:08.490Z,61.76
2018-03-26T21:17:34.411Z,61.99
2018-03-26T21:20:00.365Z,61.86
2018-03-26T21:22:26.299Z,61.79
2018-03-26T21:24:52.223Z,62.20
2018-03-26T21:27:18.148Z,62.45
2018-03-26T21:29:44.117Z,62.25
2018-03-26T21:32:10.050Z,62.91
2018-03-26T21:34:35.999Z,62.28
2018-03-26T21:37:01.917Z,62.47
2018-03-26T21:39:27.848Z,61.59
2018-03-26T21:41:53.811Z,60.27
2018-03-26T21:44:19.728Z,61.70
2018-03-26T21:46:45.663Z,62.45
2018-03-26T21:49:11.619Z,62.80
2018-03-26T21:51:37.565Z,63.31
2018-03-26T21:54:03.491Z,63.50
2018-03-26T21:56:29.413Z,63.66
2018-03-26T21:58:55.345Z,63.19
2018-03-26T22:01:21.307Z,62.62
2018-03-26T22:03:47.240Z,63.37
2018-03-26T22:06:13.166Z,63.68
2018-03-26T22:08:39.089Z,62.67
2018-03-26T22:11:05.015Z,62.55
2018-03-26T22:13:30.972Z,63.06
2018-03-26T22:15:56.894Z,63.81
2018-03-26T22:18:22.840Z,62.75
2018-03-26T22:20:48.777Z,62.44
2018-03-26T22:23:14.696Z,62.39
2018-03-26T22:25:40.625Z,62.87
2018-03-26T22:28:06.549Z,63.00
2018-03-26T22:30:32.483Z,62.93
2018-03-26T22:32:58.397Z,62.03
2018-03-26T22:35:24.352Z,61.49
2018-03-26T22:37:50.271Z,61.54
2018-03-26T22:40:16.190Z,61.04
2018-03-26T22:42:42.119Z,61.04
2018-03-26T22:45:08.043Z,60.97
2018-03-26T22:47:33.963Z,60.68
2018-03-26T22:49:59.886Z,60.82
2018-03-26T22:52:25.797Z,60.86
2018-03-26T22:54:51.745Z,61.44
2018-03-26T22:57:17.690Z,61.45
2018-03-26T22:59:43.611Z,61.42
2018-03-26T23:02:09.547Z,61.05
2018-03-26T23:04:35.473Z,60.60
2018-03-26T23:07:01.394Z,60.53
2018-03-26T23:09:27.314Z,61.33
2018-03-26T23:11:53.262Z,60.92
2018-03-26T23:14:19.186Z,61.49
2018-03-26T23:16:45.112Z,61.02
2018-03-26T23:19:11.035Z,61.13
2018-03-26T23:21:36.966Z,61.20
2018-03-26T23:24:02.898Z,61.40
2018-03-26T23:26:28.845Z,61.68
2018-03-26T23:28:54.773Z,62.00
2018-03-26T23:31:20.698Z,61.76
2018-03-26T23:33:46.627Z,62.06
2018-03-26T23:36:12.578Z,61.75
2018-03-26T23:38:38.522Z,61.99
2018-03-26T23:41:04.442Z,62.35
2018-03-26T23:43:30.382Z,62.12
2018-03-26T23:45:56.335Z,62.06
2018-03-26T23:48:22.274Z,62.25
2018-03-26T23:50:48.209Z,61.85
2018-03-26T23:53:14.156Z,61.71
2018-03-26T23:55:40.118Z,62.00
2018-03-26T23:58:06.042Z,61.89
